Time;durP1;ratioP1;P1;durP2;ratioP2;P2;SDS_P1;SDS_P2;PMS_P1;PMS_P2;Temp;Humidity;BMP_temperature;BMP_pressure;BME280_temperature;BME280_humidity;BME280_pressure;Samples;Min_cycle;Max_cycle;Signal;HPM_P1;HPM_P2
2021/11/28 00:01:22;;;;;;;7.22;1.15;;;19.40;99.90;;;;;;5051399;28;20037;-78
2021/11/28 00:03:49;;;;;;;7.78;1.63;;;19.30;99.90;;;;;;5053803;28;20470;-75
2021/11/28 00:06:26;;;;;;;8.63;1.42;;;19.20;99.90;;;;;;5052987;28;20040;-76
2021/11/28 00:11:44;;;;;;;6.45;1.38;;;19.00;99.90;;;;;;5048083;28;20044;-77
2021/11/28 00:14:15;;;;;;;12.55;1.75;;;19.10;99.90;;;;;;5039565;28;20036;-76
2021/11/28 00:16:43;;;;;;;8.00;1.20;;;19.20;99.90;;;;;;5048601;28;20033;-77
2021/11/28 00:19:10;;;;;;;8.15;1.20;;;19.30;99.90;;;;;;5050914;28;20025;-77
2021/11/28 00:21:38;;;;;;;11.43;2.42;;;19.30;99.90;;;;;;5052814;28;20127;-77
2021/11/28 00:24:05;;;;;;;6.32;1.35;;;19.40;99.90;;;;;;5047306;28;20028;-76
2021/11/28 00:26:33;;;;;;;11.05;3.25;;;19.50;99.90;;;;;;5046285;28;20037;-77
2021/11/28 00:29:01;;;;;;;9.27;2.33;;;19.50;99.90;;;;;;5049030;28;20483;-78
2021/11/28 00:31:29;;;;;;;4.75;1.77;;;19.60;99.90;;;;;;5049479;28;20060;-77
2021/11/28 00:33:56;;;;;;;8.50;2.20;;;19.60;99.90;;;;;;5054600;28;20460;-78
2021/11/28 00:36:23;;;;;;;7.18;1.17;;;19.80;99.90;;;;;;5052354;28;20181;-76
2021/11/28 00:38:51;;;;;;;3.88;1.42;;;20.00;99.90;;;;;;5053565;28;20017;-78
2021/11/28 00:41:18;;;;;;;4.40;1.65;;;20.10;99.90;;;;;;5049027;28;20476;-78
2021/11/28 00:43:45;;;;;;;13.48;2.13;;;20.10;99.90;;;;;;5047692;28;20427;-77
2021/11/28 00:46:13;;;;;;;3.67;0.70;;;20.10;99.90;;;;;;5051895;28;20025;-76
2021/11/28 00:48:43;;;;;;;6.93;0.98;;;20.20;99.90;;;;;;5051769;28;20033;-78
2021/11/28 00:53:47;;;;;;;8.57;2.05;;;20.20;99.90;;;;;;5049745;28;20021;-75
2021/11/28 00:56:17;;;;;;;5.50;0.85;;;20.30;99.90;;;;;;5051303;28;20040;-78
2021/11/28 00:58:46;;;;;;;7.97;1.27;;;20.40;99.90;;;;;;5051344;28;20361;-78
2021/11/28 01:01:14;;;;;;;5.10;1.10;;;20.60;99.90;;;;;;5052315;28;20033;-78
2021/11/28 01:03:41;;;;;;;7.47;1.23;;;20.60;99.90;;;;;;5053919;28;20070;-77
2021/11/28 01:06:09;;;;;;;6.38;1.38;;;20.70;99.90;;;;;;5051742;28;20029;-76
2021/11/28 01:08:36;;;;;;;8.35;1.20;;;20.80;99.90;;;;;;5052855;28;20399;-78
2021/11/28 01:11:04;;;;;;;7.45;1.50;;;20.90;99.90;;;;;;5051428;28;20101;-77
2021/11/28 01:13:31;;;;;;;7.82;0.70;;;21.00;99.90;;;;;;5050976;28;20029;-78
2021/11/28 01:15:59;;;;;;;10.27;1.50;;;21.20;99.90;;;;;;5051013;28;20071;-78
2021/11/28 01:18:27;;;;;;;5.60;0.70;;;21.40;99.90;;;;;;5050424;28;20514;-78
2021/11/28 01:20:54;;;;;;;8.05;1.77;;;21.50;99.90;;;;;;5048310;28;20033;-79
2021/11/28 01:23:22;;;;;;;5.47;0.90;;;21.40;99.90;;;;;;5051510;28;20108;-78
2021/11/28 01:25:49;;;;;;;6.32;1.00;;;21.60;99.90;;;;;;5051707;28;20079;-79
2021/11/28 01:28:16;;;;;;;5.88;1.15;;;21.70;99.50;;;;;;5052265;28;20028;-75
2021/11/28 01:30:44;;;;;;;5.55;1.00;;;21.70;99.70;;;;;;5047247;28;20060;-78
2021/11/28 01:33:12;;;;;;;9.60;1.90;;;21.90;99.70;;;;;;5046946;28;20075;-78
2021/11/28 01:35:40;;;;;;;8.07;1.30;;;21.90;99.10;;;;;;5046007;28;20460;-77
2021/11/28 01:38:07;;;;;;;7.15;1.17;;;21.70;99.60;;;;;;5050537;28;20041;-77
2021/11/28 01:40:35;;;;;;;6.03;1.45;;;21.70;99.20;;;;;;5049177;28;20555;-77
2021/11/28 01:43:11;;;;;;;7.10;1.70;;;21.70;99.20;;;;;;5036244;28;20033;-77
2021/11/28 01:45:39;;;;;;;4.93;0.43;;;21.70;99.70;;;;;;5046467;28;20052;-77
2021/11/28 01:48:09;;;;;;;2.35;0.50;;;21.60;99.70;;;;;;5051024;28;20548;-78
2021/11/28 01:50:38;;;;;;;6.97;0.70;;;21.40;99.90;;;;;;5045009;28;20033;-77
2021/11/28 01:53:10;;;;;;;8.48;0.60;;;21.30;99.60;;;;;;5053279;28;20376;-78
2021/11/28 01:55:38;;;;;;;6.40;0.88;;;21.10;99.40;;;;;;5054425;28;20087;-77
2021/11/28 01:58:08;;;;;;;2.38;0.70;;;20.90;99.30;;;;;;5053910;28;20055;-78
2021/11/28 02:00:45;;;;;;;8.40;1.45;;;20.90;99.60;;;;;;5050919;28;20181;-78
2021/11/28 02:03:15;;;;;;;8.18;1.08;;;20.90;99.90;;;;;;5052277;28;20052;-77
2021/11/28 02:05:48;;;;;;;9.35;1.15;;;21.10;99.90;;;;;;5051469;28;20021;-76
2021/11/28 02:08:15;;;;;;;4.55;1.17;;;21.10;99.90;;;;;;5032835;28;20560;-77
2021/11/28 02:10:43;;;;;;;4.97;1.23;;;21.10;99.20;;;;;;5039339;28;20121;-77
2021/11/28 02:13:11;;;;;;;3.65;0.60;;;21.10;99.20;;;;;;5051953;28;20029;-77
2021/11/28 02:15:39;;;;;;;8.10;1.10;;;21.10;99.40;;;;;;5050876;28;20032;-77
2021/11/28 02:18:08;;;;;;;9.98;1.65;;;21.20;99.80;;;;;;5050546;28;20064;-76
2021/11/28 02:20:46;;;;;;;5.63;1.35;;;21.20;99.60;;;;;;5049056;28;20021;-78
2021/11/28 02:23:15;;;;;;;4.78;1.00;;;21.10;99.70;;;;;;5048892;28;20067;-78
2021/11/28 02:25:43;;;;;;;8.05;2.28;;;21.10;99.60;;;;;;5049123;28;20095;-76
2021/11/28 02:28:11;;;;;;;12.07;1.92;;;20.90;99.90;;;;;;5051172;28;20115;-75
2021/11/28 02:30:39;;;;;;;4.32;1.23;;;20.80;99.90;;;;;;5050183;28;20040;-78
2021/11/28 02:33:07;;;;;;;8.05;1.60;;;20.70;99.90;;;;;;5051660;28;20132;-77
2021/11/28 02:35:35;;;;;;;13.80;2.53;;;20.60;99.90;;;;;;5051138;28;20372;-78
2021/11/28 02:38:04;;;;;;;6.13;1.45;;;20.60;99.90;;;;;;5052233;28;20096;-75
2021/11/28 02:40:34;;;;;;;6.22;2.10;;;20.40;99.90;;;;;;5050248;28;20027;-78
2021/11/28 02:43:02;;;;;;;8.65;2.22;;;20.20;99.90;;;;;;5050904;28;20064;-76
2021/11/28 02:45:31;;;;;;;6.25;3.47;;;20.00;99.90;;;;;;5047613;28;20025;-75
2021/11/28 02:48:02;;;;;;;7.68;3.00;;;20.00;99.90;;;;;;5049631;28;20516;-76
2021/11/28 02:50:30;;;;;;;10.48;2.65;;;20.10;99.90;;;;;;5036421;28;20071;-79
2021/11/28 02:53:00;;;;;;;5.57;1.73;;;20.20;99.90;;;;;;5052267;28;20087;-78
2021/11/28 02:55:33;;;;;;;10.15;3.15;;;20.30;99.90;;;;;;5049816;28;20033;-78
2021/11/28 02:58:00;;;;;;;7.22;2.03;;;20.20;99.90;;;;;;5049929;28;20025;-77
2021/11/28 03:00:33;;;;;;;10.05;2.38;;;20.40;99.90;;;;;;5049379;28;20057;-77
2021/11/28 03:03:01;;;;;;;6.10;1.48;;;20.50;99.90;;;;;;5050490;28;20120;-80
2021/11/28 03:05:28;;;;;;;11.10;2.83;;;20.50;99.90;;;;;;5050910;28;20142;-78
2021/11/28 03:07:55;;;;;;;9.82;1.98;;;20.50;99.90;;;;;;5048649;28;20403;-77
2021/11/28 03:10:43;;;;;;;6.53;2.58;;;20.70;99.90;;;;;;5044043;28;20430;-76
2021/11/28 03:13:38;;;;;;;6.13;2.25;;;20.90;99.90;;;;;;5039799;28;20029;-78
2021/11/28 03:16:09;;;;;;;13.00;2.75;;;21.00;99.90;;;;;;5042258;28;20055;-77
2021/11/28 03:18:36;;;;;;;6.45;1.58;;;21.10;99.90;;;;;;5051092;28;20025;-78
2021/11/28 03:21:10;;;;;;;4.70;1.67;;;21.10;99.90;;;;;;5047483;28;20036;-77
2021/11/28 03:23:39;;;;;;;10.25;2.00;;;21.40;99.90;;;;;;5043908;28;20029;-76
2021/11/28 03:26:16;;;;;;;9.30;1.83;;;21.70;99.50;;;;;;5040292;28;20037;-75
2021/11/28 03:28:56;;;;;;;6.80;1.48;;;21.70;98.70;;;;;;5038546;28;20032;-79
2021/11/28 03:31:26;;;;;;;5.15;0.95;;;21.80;98.30;;;;;;5045938;28;20549;-76
2021/11/28 03:33:54;;;;;;;6.13;1.00;;;21.80;98.70;;;;;;5031685;28;20045;-77
2021/11/28 03:36:25;;;;;;;8.93;1.48;;;21.90;98.30;;;;;;5047517;28;20025;-77
2021/11/28 03:38:53;;;;;;;10.68;2.85;;;22.00;98.50;;;;;;5055356;28;20365;-77
2021/11/28 03:41:22;;;;;;;3.25;0.82;;;22.00;98.60;;;;;;5053440;28;20097;-77
2021/11/28 03:43:52;;;;;;;4.78;1.23;;;22.00;98.10;;;;;;5054907;28;20027;-77
2021/11/28 03:46:19;;;;;;;3.78;0.82;;;22.10;97.70;;;;;;5052303;28;20025;-77
2021/11/28 03:48:46;;;;;;;6.82;1.30;;;22.20;97.40;;;;;;5045399;28;20061;-76
2021/11/28 03:51:14;;;;;;;6.10;1.67;;;22.30;97.30;;;;;;5050250;28;20032;-78
2021/11/28 03:53:41;;;;;;;4.75;0.93;;;22.30;98.20;;;;;;5053849;28;20020;-76
2021/11/28 03:56:09;;;;;;;7.63;1.33;;;22.30;97.30;;;;;;5053005;28;20429;-75
2021/11/28 03:58:38;;;;;;;9.88;1.05;;;22.10;97.90;;;;;;5053653;28;20095;-77
2021/11/28 04:01:08;;;;;;;9.73;1.60;;;22.10;98.00;;;;;;5053104;28;20025;-76
2021/11/28 04:03:36;;;;;;;4.90;1.48;;;22.10;98.20;;;;;;5054988;28;20079;-77
2021/11/28 04:06:03;;;;;;;3.47;1.15;;;22.10;97.90;;;;;;5052466;28;20029;-78
2021/11/28 04:08:30;;;;;;;5.00;1.25;;;22.00;98.00;;;;;;5054046;28;20029;-78
2021/11/28 04:10:58;;;;;;;6.85;1.40;;;21.90;98.10;;;;;;5053542;28;20028;-79
2021/11/28 04:13:26;;;;;;;10.07;2.63;;;21.80;98.20;;;;;;5053098;28;20037;-77
2021/11/28 04:15:53;;;;;;;6.85;3.08;;;21.70;98.30;;;;;;5053127;28;20486;-78
2021/11/28 04:18:21;;;;;;;6.22;2.13;;;21.50;98.00;;;;;;5051639;28;20039;-78
2021/11/28 04:20:50;;;;;;;10.93;1.88;;;21.30;98.50;;;;;;5049685;28;20032;-77
2021/11/28 04:23:18;;;;;;;10.90;1.75;;;21.10;99.10;;;;;;5048728;28;20099;-78
2021/11/28 04:25:48;;;;;;;12.02;1.88;;;21.00;99.70;;;;;;5053065;28;20033;-77
2021/11/28 04:28:16;;;;;;;14.38;2.63;;;20.80;99.30;;;;;;5051699;28;21054;-77
2021/11/28 04:30:43;;;;;;;5.80;1.40;;;20.70;99.50;;;;;;5052643;28;20056;-78
2021/11/28 04:33:14;;;;;;;4.50;1.75;;;20.50;99.70;;;;;;5049738;28;20032;-78
2021/11/28 04:35:42;;;;;;;8.88;1.73;;;20.40;99.80;;;;;;5048993;28;20463;-77
2021/11/28 04:38:11;;;;;;;14.88;1.80;;;20.30;99.90;;;;;;5051937;28;20410;-77
2021/11/28 04:40:39;;;;;;;12.02;1.33;;;20.20;99.90;;;;;;5047137;28;20021;-76
2021/11/28 04:43:06;;;;;;;3.35;1.17;;;20.20;99.90;;;;;;5047665;28;20041;-78
2021/11/28 04:45:33;;;;;;;9.25;2.28;;;20.20;99.90;;;;;;5049342;28;20021;-77
2021/11/28 04:48:01;;;;;;;8.48;2.35;;;20.20;99.90;;;;;;5050827;28;20021;-77
2021/11/28 04:50:28;;;;;;;10.70;2.85;;;20.10;99.90;;;;;;5051638;28;20498;-77
2021/11/28 04:52:56;;;;;;;5.80;1.63;;;20.10;99.90;;;;;;5054099;28;20040;-79
2021/11/28 04:55:23;;;;;;;6.60;1.98;;;20.00;99.90;;;;;;5052020;28;20033;-77
2021/11/28 04:57:51;;;;;;;4.22;2.33;;;19.90;99.90;;;;;;5037000;28;20021;-77
2021/11/28 05:00:25;;;;;;;4.97;1.77;;;19.80;99.90;;;;;;5049182;28;20392;-76
2021/11/28 05:02:53;;;;;;;5.38;2.05;;;19.80;99.90;;;;;;5052968;28;20111;-78
2021/11/28 05:05:21;;;;;;;9.45;1.98;;;19.70;99.90;;;;;;5049683;28;20087;-76
2021/11/28 05:07:49;;;;;;;5.88;1.73;;;19.80;99.90;;;;;;5051557;28;20039;-76
2021/11/28 05:10:16;;;;;;;7.05;1.52;;;19.80;99.90;;;;;;5052238;28;20020;-78
2021/11/28 05:12:43;;;;;;;5.95;1.50;;;19.80;99.90;;;;;;5049532;28;20075;-76
2021/11/28 05:15:11;;;;;;;11.15;2.78;;;19.80;99.90;;;;;;5036970;28;20063;-77
2021/11/28 05:17:39;;;;;;;6.13;1.55;;;19.70;99.90;;;;;;5053357;28;20017;-78
2021/11/28 05:20:08;;;;;;;5.78;1.65;;;19.60;99.90;;;;;;5051555;28;20041;-73
2021/11/28 05:22:36;;;;;;;9.38;1.92;;;19.40;99.90;;;;;;5052341;28;20040;-76
2021/11/28 05:25:05;;;;;;;6.75;1.95;;;19.40;99.90;;;;;;5052552;28;20481;-76
2021/11/28 05:27:32;;;;;;;11.30;1.75;;;19.30;99.90;;;;;;5052690;28;20032;-79
2021/11/28 05:30:00;;;;;;;9.63;1.52;;;19.20;99.90;;;;;;5050621;28;20106;-76
2021/11/28 05:32:28;;;;;;;11.02;1.38;;;19.20;99.90;;;;;;5050133;28;20037;-74
2021/11/28 05:34:55;;;;;;;9.35;1.30;;;19.20;99.90;;;;;;5050139;28;20027;-77
2021/11/28 05:37:22;;;;;;;10.52;1.48;;;19.10;99.90;;;;;;5052974;28;20033;-78
2021/11/28 05:39:50;;;;;;;4.25;1.05;;;19.10;99.90;;;;;;5047426;28;20456;-75
2021/11/28 05:42:17;;;;;;;5.90;1.10;;;19.00;99.90;;;;;;5044845;28;20066;-76
2021/11/28 05:44:45;;;;;;;10.32;1.55;;;19.00;99.90;;;;;;5037998;28;20529;-76
2021/11/28 05:47:12;;;;;;;8.20;1.40;;;19.00;99.90;;;;;;5046264;28;20497;-77
2021/11/28 05:49:39;;;;;;;10.05;1.67;;;19.00;99.90;;;;;;5043904;28;20017;-76
2021/11/28 05:52:07;;;;;;;9.13;1.92;;;18.90;99.90;;;;;;5048569;28;20067;-77
2021/11/28 05:54:34;;;;;;;9.07;1.60;;;18.90;99.90;;;;;;5042121;28;20018;-79
2021/11/28 05:57:02;;;;;;;17.95;2.22;;;18.80;99.90;;;;;;5048849;28;20025;-73
2021/11/28 05:59:30;;;;;;;7.97;2.22;;;18.80;99.90;;;;;;5048865;28;20067;-72
2021/11/28 06:01:58;;;;;;;5.05;1.45;;;18.80;99.90;;;;;;5039524;28;20134;-73
2021/11/28 06:04:25;;;;;;;6.13;1.58;;;18.90;99.90;;;;;;5049932;28;20024;-72
2021/11/28 06:06:52;;;;;;;10.93;1.20;;;19.00;99.90;;;;;;5049959;28;20116;-72
2021/11/28 06:09:20;;;;;;;14.77;1.98;;;18.90;99.90;;;;;;5049438;28;20472;-72
2021/11/28 06:11:47;;;;;;;12.52;2.45;;;18.80;99.90;;;;;;5039934;28;20428;-74
2021/11/28 06:14:15;;;;;;;7.28;1.98;;;18.80;99.90;;;;;;5041539;28;20029;-75
2021/11/28 06:16:42;;;;;;;7.55;1.50;;;18.70;99.90;;;;;;5047037;28;20053;-72
2021/11/28 06:19:09;;;;;;;6.53;1.63;;;18.80;99.90;;;;;;5034545;28;20022;-75
2021/11/28 06:21:37;;;;;;;7.63;1.90;;;18.70;99.90;;;;;;5043237;28;20027;-75
2021/11/28 06:24:04;;;;;;;5.75;1.23;;;18.70;99.90;;;;;;5032282;28;20036;-73
2021/11/28 06:26:31;;;;;;;10.15;2.00;;;18.70;99.90;;;;;;5048923;28;20075;-73
2021/11/28 06:28:59;;;;;;;8.65;1.23;;;18.60;99.90;;;;;;5049885;28;20024;-74
2021/11/28 06:31:26;;;;;;;5.18;0.95;;;18.60;99.90;;;;;;5040351;28;20056;-73
2021/11/28 06:33:54;;;;;;;9.73;1.27;;;18.60;99.90;;;;;;5042403;28;20024;-72
2021/11/28 06:36:21;;;;;;;11.10;1.27;;;18.50;99.90;;;;;;5050489;28;20787;-71
2021/11/28 06:38:48;;;;;;;9.38;2.38;;;18.40;99.90;;;;;;5041985;28;20032;-72
2021/11/28 06:41:16;;;;;;;9.07;1.60;;;18.50;99.90;;;;;;5043769;28;20048;-69
2021/11/28 06:43:44;;;;;;;16.05;1.80;;;18.50;99.90;;;;;;5049251;28;20422;-73
2021/11/28 06:46:11;;;;;;;11.35;1.35;;;18.60;99.90;;;;;;5049734;28;20033;-71
2021/11/28 06:48:38;;;;;;;6.90;1.38;;;18.50;99.90;;;;;;5049861;28;20035;-72
2021/11/28 06:51:06;;;;;;;8.10;2.40;;;18.70;99.90;;;;;;5048790;28;20029;-71
2021/11/28 06:53:33;;;;;;;6.85;1.70;;;18.80;99.90;;;;;;5049553;28;20033;-71
2021/11/28 06:56:03;;;;;;;10.68;1.70;;;18.70;99.90;;;;;;5046998;28;20032;-72
2021/11/28 06:58:33;;;;;;;11.05;2.03;;;18.70;99.90;;;;;;5047746;28;20029;-71
2021/11/28 07:01:00;;;;;;;8.65;1.33;;;18.60;99.90;;;;;;5045264;28;20064;-72
2021/11/28 07:03:28;;;;;;;7.75;1.42;;;18.60;99.90;;;;;;5041660;28;20047;-72
2021/11/28 07:05:55;;;;;;;11.68;1.90;;;18.50;99.90;;;;;;5044564;28;20453;-72
2021/11/28 07:08:23;;;;;;;5.82;1.00;;;18.50;99.90;;;;;;5047492;28;20029;-73
2021/11/28 07:10:50;;;;;;;7.55;0.98;;;18.60;99.90;;;;;;5046387;28;20017;-72
2021/11/28 07:13:18;;;;;;;10.20;1.75;;;18.50;99.90;;;;;;5040663;28;20469;-72
2021/11/28 07:15:45;;;;;;;6.25;1.30;;;18.50;99.90;;;;;;5050278;28;20025;-73
2021/11/28 07:18:12;;;;;;;9.90;1.23;;;18.60;99.90;;;;;;5049230;28;20476;-71
2021/11/28 07:20:40;;;;;;;11.50;1.90;;;18.70;99.90;;;;;;5044060;28;20025;-75
2021/11/28 07:23:07;;;;;;;7.93;1.65;;;18.60;99.90;;;;;;5046052;28;20042;-75
2021/11/28 07:25:35;;;;;;;12.73;2.28;;;18.50;99.90;;;;;;5046153;28;20111;-76
2021/11/28 07:28:03;;;;;;;5.55;2.00;;;18.50;99.90;;;;;;5051841;28;20078;-74
2021/11/28 07:30:31;;;;;;;10.45;2.95;;;18.40;99.90;;;;;;5042939;28;20064;-74
2021/11/28 07:32:58;;;;;;;6.28;2.03;;;18.40;99.90;;;;;;5052853;28;20033;-74
2021/11/28 07:35:26;;;;;;;9.38;2.05;;;18.30;99.90;;;;;;5048041;28;20021;-74
2021/11/28 07:37:53;;;;;;;7.07;1.08;;;18.20;99.90;;;;;;5046667;28;20060;-75
2021/11/28 07:40:20;;;;;;;10.25;1.95;;;18.20;99.90;;;;;;5052114;28;20505;-74
2021/11/28 07:42:48;;;;;;;9.88;1.65;;;18.10;99.90;;;;;;5052843;28;20059;-74
2021/11/28 07:45:15;;;;;;;5.90;1.15;;;18.10;99.90;;;;;;5051506;28;20120;-74
2021/11/28 07:47:42;;;;;;;5.82;1.88;;;18.20;99.90;;;;;;5044383;28;20414;-74
2021/11/28 07:50:11;;;;;;;7.10;1.23;;;18.20;99.90;;;;;;5051318;28;20025;-74
2021/11/28 07:52:38;;;;;;;6.05;0.85;;;18.10;99.90;;;;;;5051193;28;20029;-74
2021/11/28 07:55:06;;;;;;;4.18;1.05;;;18.00;99.90;;;;;;5053566;28;20037;-75
2021/11/28 07:57:35;;;;;;;7.22;1.10;;;18.00;99.90;;;;;;5051195;28;20569;-75
2021/11/28 08:00:04;;;;;;;6.72;1.08;;;18.00;99.90;;;;;;5053307;28;20141;-75
2021/11/28 08:02:31;;;;;;;5.00;1.42;;;18.10;99.90;;;;;;5052921;28;20102;-74
2021/11/28 08:04:58;;;;;;;6.28;2.53;;;18.10;99.90;;;;;;5042628;28;20021;-75
2021/11/28 08:07:25;;;;;;;6.60;1.48;;;18.10;99.90;;;;;;5054008;28;20029;-75
2021/11/28 08:09:53;;;;;;;12.70;1.20;;;18.00;99.90;;;;;;5048121;28;20021;-74
2021/11/28 08:12:24;;;;;;;6.75;2.00;;;18.00;99.90;;;;;;5052263;28;20035;-75
2021/11/28 08:14:52;;;;;;;7.28;1.40;;;18.00;99.90;;;;;;5050903;28;20112;-75
2021/11/28 08:17:20;;;;;;;6.82;1.75;;;18.00;99.90;;;;;;5050045;28;20037;-73
2021/11/28 08:19:48;;;;;;;5.95;1.45;;;18.00;99.90;;;;;;5044848;28;20021;-74
2021/11/28 08:22:15;;;;;;;9.93;1.10;;;17.90;99.90;;;;;;5051549;28;20072;-75
2021/11/28 08:24:43;;;;;;;10.65;2.13;;;17.90;99.90;;;;;;5051605;28;20033;-75
2021/11/28 08:27:11;;;;;;;6.50;1.13;;;17.90;99.90;;;;;;5052558;28;20029;-75
2021/11/28 08:29:40;;;;;;;5.80;1.30;;;17.90;99.90;;;;;;5039999;28;20055;-75
2021/11/28 08:32:09;;;;;;;12.10;1.75;;;17.90;99.90;;;;;;5053137;28;20068;-75
2021/11/28 08:34:36;;;;;;;8.77;1.70;;;17.90;99.90;;;;;;5051795;28;20078;-74
2021/11/28 08:37:05;;;;;;;6.38;1.00;;;17.90;99.90;;;;;;5052197;28;20025;-74
2021/11/28 08:39:33;;;;;;;11.70;1.55;;;17.80;99.90;;;;;;5052361;28;20032;-76
2021/11/28 08:42:03;;;;;;;13.02;1.92;;;17.80;99.90;;;;;;5050131;28;20060;-76
2021/11/28 08:44:31;;;;;;;11.63;1.73;;;17.80;99.90;;;;;;5040142;28;20056;-74
2021/11/28 08:46:58;;;;;;;2.78;1.02;;;17.70;99.90;;;;;;5049849;28;20068;-76
2021/11/28 08:49:26;;;;;;;11.13;1.55;;;17.70;99.90;;;;;;5051296;28;20090;-74
2021/11/28 08:51:53;;;;;;;5.45;1.00;;;17.80;99.90;;;;;;5063850;28;20163;-76
2021/11/28 08:54:21;;;;;;;4.50;1.70;;;17.70;99.90;;;;;;5050133;28;20029;-75
2021/11/28 08:56:51;;;;;;;8.45;2.15;;;17.70;99.90;;;;;;5048253;28;20041;-77
2021/11/28 08:59:20;;;;;;;10.63;1.35;;;17.70;99.90;;;;;;5052419;28;20036;-74
2021/11/28 09:01:47;;;;;;;8.35;2.22;;;17.70;99.90;;;;;;5052147;28;20048;-75
2021/11/28 09:04:15;;;;;;;6.22;1.40;;;17.60;99.90;;;;;;5046473;28;20100;-74
2021/11/28 09:06:42;;;;;;;11.18;1.65;;;17.60;99.90;;;;;;5046072;28;20033;-74
2021/11/28 09:09:09;;;;;;;10.10;1.90;;;17.50;99.90;;;;;;5043025;28;20033;-74
2021/11/28 09:11:37;;;;;;;9.25;1.70;;;17.40;99.90;;;;;;5043622;28;21915;-75
2021/11/28 09:14:05;;;;;;;7.47;1.50;;;17.50;99.90;;;;;;5039392;28;20038;-75
2021/11/28 09:16:32;;;;;;;8.40;2.15;;;17.50;99.90;;;;;;5037424;28;20072;-74
2021/11/28 09:19:22;;;;;;;7.65;1.70;;;17.40;99.90;;;;;;5048825;28;20025;-74
2021/11/28 09:21:50;;;;;;;9.02;2.22;;;17.40;99.90;;;;;;5045491;28;20040;-76
2021/11/28 09:24:36;;;;;;;6.68;2.33;;;17.40;99.90;;;;;;5040300;28;20040;-80
2021/11/28 09:27:10;;;;;;;8.25;2.25;;;17.30;99.90;;;;;;5056056;28;20044;-74
2021/11/28 09:29:40;;;;;;;6.72;1.70;;;17.30;99.90;;;;;;5048105;28;20022;-81
2021/11/28 09:32:08;;;;;;;8.13;1.40;;;17.20;99.90;;;;;;5057767;28;20068;-76
2021/11/28 09:34:35;;;;;;;10.55;3.08;;;17.20;99.90;;;;;;5035653;28;20467;-77
2021/11/28 09:37:03;;;;;;;5.65;1.05;;;17.20;99.90;;;;;;5053177;28;20059;-77
2021/11/28 09:39:31;;;;;;;9.95;1.42;;;17.20;99.90;;;;;;5053251;28;20033;-77
2021/11/28 09:42:10;;;;;;;11.25;1.48;;;17.20;99.90;;;;;;5053462;28;20029;-81
2021/11/28 09:44:39;;;;;;;9.73;3.00;;;17.10;99.90;;;;;;5039299;28;20025;-78
2021/11/28 09:47:11;;;;;;;12.18;2.47;;;17.10;99.90;;;;;;5050267;28;20459;-80
2021/11/28 09:49:41;;;;;;;8.10;2.05;;;17.10;99.90;;;;;;5054834;28;20445;-76
2021/11/28 09:52:14;;;;;;;5.70;1.50;;;17.10;99.90;;;;;;5052656;28;20104;-75
2021/11/28 09:54:46;;;;;;;7.50;1.55;;;17.10;99.90;;;;;;5054293;28;20083;-76
2021/11/28 09:57:16;;;;;;;8.63;1.45;;;17.10;99.90;;;;;;5055469;28;20111;-77
2021/11/28 09:59:46;;;;;;;8.15;1.83;;;17.10;99.90;;;;;;5056667;28;20025;-78
2021/11/28 10:02:31;;;;;;;8.70;1.35;;;17.10;99.90;;;;;;5054397;28;20099;-80
2021/11/28 10:05:01;;;;;;;4.88;1.48;;;17.10;99.90;;;;;;5058316;28;20029;-76
2021/11/28 10:07:29;;;;;;;8.85;1.10;;;17.10;99.90;;;;;;5061747;28;20025;-78
2021/11/28 10:09:57;;;;;;;4.15;1.90;;;17.00;99.90;;;;;;5062215;28;20025;-75
2021/11/28 10:12:34;;;;;;;6.78;1.38;;;17.00;99.90;;;;;;5048071;28;20025;-81
2021/11/28 10:15:09;;;;;;;7.85;1.50;;;17.00;99.90;;;;;;5052165;28;20372;-82
2021/11/28 10:17:38;;;;;;;9.27;1.42;;;17.00;99.90;;;;;;5052764;28;20037;-79
2021/11/28 10:20:11;;;;;;;14.52;1.95;;;17.00;99.90;;;;;;5051248;28;20106;-78
2021/11/28 10:22:39;;;;;;;7.47;1.27;;;17.00;99.90;;;;;;5050801;28;20044;-79
2021/11/28 10:25:16;;;;;;;6.93;1.83;;;16.90;99.90;;;;;;5042806;28;20404;-80
2021/11/28 10:27:50;;;;;;;4.57;1.52;;;16.90;99.90;;;;;;5045702;28;20498;-79
2021/11/28 10:30:28;;;;;;;6.22;1.33;;;16.90;99.90;;;;;;5048198;28;20036;-81
2021/11/28 10:33:03;;;;;;;5.22;1.73;;;16.90;99.90;;;;;;5045329;28;20536;-81
2021/11/28 10:35:30;;;;;;;8.05;1.98;;;16.90;99.90;;;;;;5061906;28;20048;-81
2021/11/28 10:37:57;;;;;;;6.78;1.73;;;16.90;99.90;;;;;;5054133;28;20032;-80
2021/11/28 10:40:30;;;;;;;5.60;1.30;;;16.80;99.90;;;;;;5039497;28;20024;-80
2021/11/28 10:43:15;;;;;;;6.18;1.33;;;16.80;99.90;;;;;;5050953;28;20120;-82
2021/11/28 10:45:48;;;;;;;7.63;1.45;;;16.70;99.90;;;;;;5052047;28;20033;-82
2021/11/28 10:48:23;;;;;;;8.00;1.90;;;16.70;99.90;;;;;;5051176;28;21067;-78
2021/11/28 10:50:52;;;;;;;6.17;3.03;;;16.70;99.90;;;;;;5048704;28;20384;-77
2021/11/28 10:53:22;;;;;;;6.40;2.10;;;16.60;99.90;;;;;;5049559;28;20475;-79
2021/11/28 10:55:59;;;;;;;8.65;2.70;;;16.60;99.90;;;;;;5051415;28;20025;-80
2021/11/28 10:58:31;;;;;;;6.28;1.40;;;16.50;99.90;;;;;;5052876;28;20029;-77
2021/11/28 11:01:08;;;;;;;4.97;1.30;;;16.50;99.90;;;;;;5051183;28;20024;-77
2021/11/28 11:03:50;;;;;;;9.68;2.25;;;16.40;99.90;;;;;;5043801;28;20036;-78
2021/11/28 11:06:19;;;;;;;12.50;1.55;;;16.40;99.90;;;;;;5047184;28;20033;-81
2021/11/28 11:08:50;;;;;;;7.82;1.60;;;16.40;99.90;;;;;;5053333;28;20403;-78
2021/11/28 11:11:17;;;;;;;8.35;1.52;;;16.30;99.90;;;;;;5057809;28;20124;-80
2021/11/28 11:14:00;;;;;;;4.60;1.25;;;16.30;99.90;;;;;;5051414;28;20046;-80
2021/11/28 11:16:33;;;;;;;8.55;1.85;;;16.30;99.90;;;;;;5044422;28;20040;-78
2021/11/28 11:19:31;;;;;;;9.20;1.33;;;16.30;99.90;;;;;;5053332;28;20025;-78
2021/11/28 11:22:02;;;;;;;4.88;1.63;;;16.30;99.90;;;;;;5053982;28;20037;-78
2021/11/28 11:24:30;;;;;;;8.10;1.30;;;16.30;99.90;;;;;;5052387;28;20028;-78
2021/11/28 11:27:39;;;;;;;6.60;1.20;;;16.30;99.90;;;;;;5042424;28;20173;-80
2021/11/28 11:30:21;;;;;;;6.50;1.08;;;16.30;99.90;;;;;;5045604;28;20456;-81
2021/11/28 11:33:01;;;;;;;6.35;1.10;;;16.30;99.90;;;;;;5050463;28;20586;-75
2021/11/28 11:35:44;;;;;;;11.77;1.88;;;16.20;99.90;;;;;;5051693;28;20033;-80
2021/11/28 11:38:15;;;;;;;8.35;1.42;;;16.20;99.90;;;;;;5057999;28;20037;-80
2021/11/28 11:40:43;;;;;;;8.48;1.08;;;16.20;99.90;;;;;;5051843;28;20073;-79
2021/11/28 11:43:11;;;;;;;6.45;1.23;;;16.20;99.90;;;;;;5053705;28;20040;-82
2021/11/28 11:45:39;;;;;;;9.55;3.03;;;16.20;99.90;;;;;;5050892;28;20025;-78
2021/11/28 11:48:08;;;;;;;6.90;1.15;;;16.20;99.90;;;;;;5043179;28;20987;-77
2021/11/28 11:50:36;;;;;;;8.15;1.92;;;16.20;99.90;;;;;;5055626;28;20033;-78
2021/11/28 11:53:06;;;;;;;9.18;2.35;;;16.10;99.90;;;;;;5052170;28;20044;-80
2021/11/28 11:55:41;;;;;;;4.57;1.83;;;16.20;99.90;;;;;;5042040;28;20033;-77
2021/11/28 11:58:22;;;;;;;11.48;2.60;;;16.20;99.90;;;;;;5040261;28;20036;-79
2021/11/28 12:01:14;;;;;;;5.07;1.40;;;16.10;99.90;;;;;;5037904;28;20029;-81
2021/11/28 12:03:54;;;;;;;7.93;1.23;;;16.10;99.90;;;;;;5044886;28;20065;-76
2021/11/28 12:06:44;;;;;;;6.32;1.63;;;16.10;99.90;;;;;;5047334;28;20029;-80
2021/11/28 12:09:30;;;;;;;5.65;2.50;;;16.10;99.90;;;;;;5035519;28;20029;-77
2021/11/28 12:12:09;;;;;;;10.68;2.22;;;16.10;99.90;;;;;;5038248;28;20030;-78
2021/11/28 12:14:37;;;;;;;7.13;1.73;;;16.10;99.90;;;;;;5048537;28;20025;-77
2021/11/28 12:17:37;;;;;;;10.35;2.15;;;16.10;99.90;;;;;;5046404;28;20032;-78
2021/11/28 12:20:05;;;;;;;7.95;1.58;;;16.10;99.90;;;;;;5036228;28;20075;-77
2021/11/28 12:22:44;;;;;;;4.88;1.23;;;16.10;99.90;;;;;;5041965;28;20483;-76
2021/11/28 12:25:38;;;;;;;10.90;1.48;;;16.10;99.90;;;;;;5041881;28;20027;-76
2021/11/28 12:28:33;;;;;;;5.63;0.88;;;16.00;99.90;;;;;;5047584;28;20472;-76
2021/11/28 12:31:11;;;;;;;4.95;1.52;;;16.00;99.90;;;;;;5049955;28;20044;-77
2021/11/28 12:33:54;;;;;;;7.35;2.85;;;16.00;99.90;;;;;;5038111;28;20032;-77
2021/11/28 12:36:38;;;;;;;8.68;1.50;;;16.00;99.90;;;;;;5044292;28;20040;-77
2021/11/28 12:39:31;;;;;;;5.07;0.88;;;16.00;99.90;;;;;;5050805;28;20438;-77
2021/11/28 12:42:19;;;;;;;3.70;0.77;;;16.00;99.90;;;;;;5048282;28;20032;-78
2021/11/28 12:44:49;;;;;;;2.33;0.70;;;15.90;99.90;;;;;;5041174;28;20040;-77
2021/11/28 12:47:20;;;;;;;8.32;1.33;;;15.90;99.90;;;;;;5049571;28;20053;-78
2021/11/28 12:49:53;;;;;;;5.50;0.98;;;15.90;99.90;;;;;;5047195;28;20116;-80
2021/11/28 12:52:26;;;;;;;3.22;1.23;;;15.90;99.90;;;;;;5043647;28;20068;-80
2021/11/28 12:55:15;;;;;;;4.72;0.70;;;15.80;99.90;;;;;;5044156;28;20029;-81
2021/11/28 12:57:44;;;;;;;8.98;2.30;;;15.80;99.90;;;;;;5047633;28;20025;-80
2021/11/28 13:00:17;;;;;;;7.63;1.77;;;15.70;99.90;;;;;;5053516;28;20036;-83
2021/11/28 13:02:50;;;;;;;8.18;1.30;;;15.60;99.90;;;;;;5043681;28;20180;-82
2021/11/28 13:05:35;;;;;;;14.90;1.60;;;15.60;99.90;;;;;;5050337;28;20031;-80
2021/11/28 13:08:05;;;;;;;13.77;2.17;;;15.50;99.90;;;;;;5047711;28;20101;-78